Hauptseite
METAR-TAF:

METAR-TAF

Flughäfen :

Malé, Hulhule Island, Malediven

Malé International Airport

Breite: 04-12N, Länge: 073-32E, Höhe: 2 m

Beobachtung

Neuester Wetterbericht von vor 58 Minuten, um 17:00 UTC
Wind 7 kt aus West
Temperatur 29°C
Luftfeuchtigkeit 74%
Luftdruck 1011 hPa
Sichtweite 10 km oder mehr
Leicht bewölkt in der Höhe von 1800 ft
Aufgelockert bewölkt in der Höhe von 28000 ft

METAR: VRMM 261700Z 27007KT 9999 FEW018 SCT280 29/24 Q1011 NOSIG

Zeit: 22:58 (17:58 UTC)

Prognose

Neuester Wetterbericht von vor 58 Minuten, um 17:00 UTC
Gültige Prognose vom 26 um 18 UTC bis 27 um 24 UTC
Wind 8 kt aus West
Sichtweite 10 km oder mehr
Leicht bewölkt in der Höhe von 1800 ft
Zeitweise
vom 26 um 21 UTC bis 27 um 03 UTC
Leicht bewölkt in der Höhe von 1900 ft, Kumulonimbus.

TAF: VRMM 261700Z 2618/2724 27008KT 9999 FEW018 TEMPO 2621/2703 FEW019CB

Wetterbeobachtungen und Prognosen von mehr als 4000 Flughäfen (METAR und TAF Bericht).

Die verfügbaren Stationen werden durch gelbe und rote Markierungen auf der Karte dargestellt.

Führen Sie die Maus auf sie, um den Namen der Station zu sehen.

Darauf klicken, um die Beobachtung von Wetterbeobachtungen und Prognosen zu sehen.

Um die Karte zu ändern : klicken Sie auf den grünen Tasten mit einem schwarzen Kreuz Zum Vergrößern, auf den grünen Button mit einem Gedankenstrich zu verkleinern, oder auf die grünen Pfeile für benachbarte Karten.


METAR-TAF: